Data for 11/05/2007

Time Sea-Level Adjusted Pressure Absolute Pressure Temperature Relative Humidity Dew Point   
(mb) (inHg) (mb) (inHg) (C) (F) (%) (C) (F)
00:05 1024 30.24 853 25.19 0.7 33.2 69 -4.4 24.2
00:10 1024 30.24 853 25.19 0.6 33 69 -4.4 24
00:15 1024 30.24 853 25.19 0.5 33 70 -4.4 24.1
00:20 1024 30.24 853 25.19 0.4 32.8 70 -4.4 24.1
00:25 1024 30.24 853 25.19 0.4 32.7 70 -4.4 24.1
00:30 1024 30.24 853 25.19 0.3 32.6 71 -4.4 24.1
00:35 1024 30.24 853 25.19 0.3 32.5 71 -4.4 24
00:40 1024 30.24 853 25.19 0.4 32.8 70 -4.5 23.9
00:45 1024 30.24 853 25.19 0.5 32.9 70 -4.3 24.3
00:50 1024 30.24 853 25.19 0.3 32.5 71 -4.3 24.2
00:55 1024 30.24 853 25.19 0.1 32.2 72 -4.4 24.1
01:00 1024 30.24 853 25.19 -0 32 73 -4.4 24.1
01:05 1024 30.24 853 25.19 -0.1 31.9 73 -4.4 24.1
01:10 1024 30.24 853 25.19 -0.1 31.9 73 -4.3 24.2
01:15 1024 30.24 854 25.22 -0 32 72 -4.4 24
01:20 1024 30.24 854 25.22 0.1 32.2 72 -4.3 24.2
01:25 1024 30.24 854 25.22 0.1 32.1 72 -4.3 24.3
01:30 1024 30.24 854 25.22 0.1 32.2 72 -4.3 24.2
01:35 1024 30.24 854 25.22 0.1 32.1 73 -4.2 24.4
01:40 1024 30.24 854 25.22 -0.1 31.8 73 -4.3 24.2
01:45 1024 30.24 854 25.22 -0.3 31.5 74 -4.3 24.3
01:50 1024 30.24 854 25.22 -0.5 31.2 75 -4.3 24.2
01:55 1025 30.27 854 25.22 -0.5 31 75 -4.4 24.1
02:00 1025 30.27 854 25.22 -0.6 31 76 -4.3 24.2
02:05 1025 30.27 854 25.22 -0.7 30.8 76 -4.4 24.1
02:10 1025 30.27 854 25.22 -0.7 30.7 76 -4.4 24.1
02:15 1025 30.27 854 25.22 -0.8 30.5 76 -4.5 23.9
02:20 1025 30.27 854 25.22 -0.8 30.5 76 -4.5 24
02:25 1025 30.27 854 25.22 -0.9 30.4 76 -4.5 23.9
02:30 1025 30.27 854 25.22 -0.9 30.4 77 -4.4 24
02:35 1025 30.27 854 25.22 -1 30.3 77 -4.4 24
02:40 1025 30.27 854 25.22 -1 30.2 77 -4.5 23.8
02:45 1025 30.27 854 25.22 -1 30.3 77 -4.4 24
02:50 1025 30.27 855 25.25 -1 30.2 78 -4.4 24.1
02:55 1025 30.27 855 25.25 -1 30.2 78 -4.3 24.2
03:00 1025 30.27 855 25.25 -1.1 30 79 -4.3 24.2
03:05 1026 30.3 855 25.25 -1.1 29.9 79 -4.4 24.2
03:10 1026 30.3 855 25.25 -1.1 30 79 -4.2 24.4
03:15 1025 30.27 855 25.25 -1.2 29.9 79 -4.3 24.3
03:20 1025 30.27 855 25.25 -1.3 29.6 80 -4.4 24.1
03:25 1025 30.27 855 25.25 -1.5 29.3 80 -4.4 24
03:30 1026 30.3 855 25.25 -1.7 29 81 -4.5 23.8
03:35 1026 30.3 855 25.25 -1.8 28.8 82 -4.5 23.9
03:40 1026 30.3 855 25.25 -1.9 28.6 82 -4.5 23.8
03:45 1026 30.3 855 25.25 -1.8 28.8 82 -4.5 23.9
03:50 1026 30.3 855 25.25 -1.7 28.9 82 -4.4 24
03:55 1026 30.3 855 25.25 -1.7 28.9 81 -4.5 23.9
04:00 1026 30.3 855 25.25 -1.6 29.1 81 -4.5 23.9
04:05 1026 30.3 855 25.25 -1.7 29 81 -4.4 24
04:10 1026 30.3 855 25.25 -1.8 28.8 82 -4.4 24.1
04:15 1026 30.3 855 25.25 -1.7 28.9 82 -4.4 24.1
04:20 1026 30.3 855 25.25 -1.7 28.9 82 -4.4 24.1
04:25 1026 30.3 855 25.25 -1.8 28.7 83 -4.4 24.1
04:30 1026 30.3 855 25.25 -1.9 28.6 83 -4.4 24.1
04:35 1026 30.3 855 25.25 -2 28.5 83 -4.4 24
04:40 1026 30.3 856 25.28 -1.9 28.5 84 -4.4 24.1
04:45 1026 30.3 856 25.28 -2 28.4 84 -4.4 24
04:50 1026 30.3 856 25.28 -2 28.3 84 -4.5 24
04:55 1026 30.3 856 25.28 -2.1 28.3 83 -4.5 23.9
05:00 1026 30.3 856 25.28 -2.1 28.3 83 -4.5 23.9
05:05 1026 30.3 856 25.28 -2.1 28.2 83 -4.6 23.7
05:10 1026 30.3 856 25.28 -2.2 28 83 -4.6 23.7
05:15 1026 30.3 856 25.28 -2.3 27.8 83 -4.8 23.4
05:20 1027 30.33 856 25.28 -2.3 27.8 84 -4.7 23.6
05:25 1027 30.33 856 25.28 -2.4 27.7 84 -4.6 23.6
05:30 1027 30.33 856 25.28 -2.4 27.6 85 -4.6 23.6
05:35 1027 30.33 856 25.28 -2.5 27.6 85 -4.7 23.5
05:40 1027 30.33 856 25.28 -2.5 27.5 86 -4.6 23.8
05:45 1027 30.33 856 25.28 -2.6 27.4 86 -4.6 23.7
05:50 1027 30.33 856 25.28 -2.6 27.3 86 -4.6 23.7
05:55 1027 30.33 856 25.28 -2.6 27.4 86 -4.6 23.7
06:00 1027 30.33 856 25.28 -2.6 27.3 87 -4.5 23.9
06:05 1027 30.33 856 25.28 -2.7 27.2 87 -4.5 23.8
06:10 1027 30.33 856 25.28 -2.7 27.1 87 -4.6 23.7
06:15 1027 30.33 856 25.28 -2.7 27.2 87 -4.6 23.8
06:20 1027 30.33 856 25.28 -2.7 27.2 87 -4.5 23.8
06:25 1027 30.33 856 25.28 -2.7 27.1 88 -4.5 23.9
06:30 1027 30.33 856 25.28 -2.7 27.1 87 -4.6 23.8
06:35 1027 30.33 856 25.28 -2.6 27.2 87 -4.5 23.9
06:40 1027 30.33 856 25.28 -2.6 27.4 87 -4.4 24
06:45 1027 30.33 856 25.28 -2.5 27.5 87 -4.5 24
06:50 1027 30.33 856 25.28 -2.6 27.4 86 -4.6 23.7
06:55 1027 30.33 856 25.28 -2.7 27.1 87 -4.6 23.7
07:00 1027 30.33 856 25.28 -2.8 27 87 -4.6 23.7
07:05 1027 30.33 856 25.28 -2.7 27.2 87 -4.5 23.8
07:10 1027 30.33 856 25.28 -2.6 27.4 88 -4.3 24.2
07:15 1027 30.33 856 25.28 -2.5 27.5 87 -4.4 24.1
07:20 1027 30.33 856 25.28 -2.4 27.6 87 -4.3 24.2
07:25 1027 30.33 857 25.31 -2.5 27.6 87 -4.4 24.1
07:30 1027 30.33 857 25.31 -2.5 27.6 86 -4.4 24
07:35 1027 30.33 857 25.31 -2.4 27.7 87 -4.3 24.2
07:40 1028 30.36 857 25.31 -2.4 27.7 86 -4.4 24.1
07:45 1028 30.36 857 25.31 -2.3 27.8 86 -4.3 24.3
07:50 1028 30.36 857 25.31 -2.2 28.1 86 -4.2 24.4
07:55 1028 30.36 857 25.31 -2 28.5 85 -4.2 24.4
08:00 1028 30.36 857 25.31 -1.8 28.8 84 -4.1 24.5
08:05 1028 30.36 857 25.31 -1.5 29.2 84 -3.9 25
08:10 1028 30.36 857 25.31 -1.5 29.2 84 -3.9 24.9
08:15 1028 30.36 857 25.31 -1.5 29.3 84 -3.9 24.9
08:20 1028 30.36 857 25.31 -1.4 29.4 83 -3.9 25
08:25 1028 30.36 857 25.31 -1.4 29.5 84 -3.8 25.2
08:30 1028 30.36 857 25.31 -1.3 29.6 84 -3.7 25.3
08:35 1028 30.36 857 25.31 -1.2 29.8 83 -3.7 25.3
08:40 1028 30.36 857 25.31 -1.1 30.1 82 -3.7 25.3
08:45 1028 30.36 857 25.31 -1 30.2 82 -3.7 25.3
08:50 1028 30.36 857 25.31 -0.9 30.5 81 -3.7 25.3
08:55 1028 30.36 857 25.31 -0.8 30.6 82 -3.5 25.7
09:00 1028 30.36 857 25.31 -0.8 30.5 82 -3.5 25.8
09:05 1028 30.36 857 25.31 -0.7 30.8 82 -3.4 25.8
09:10 1028 30.36 857 25.31 -0.6 31 81 -3.4 25.9
09:15 1028 30.36 857 25.31 -0.5 31.2 81 -3.4 25.9
09:20 1028 30.36 857 25.31 -0.5 31.1 80 -3.5 25.6
09:25 1028 30.36 857 25.31 -0.5 31.1 80 -3.5 25.6
09:30 1027 30.33 857 25.31 -0.4 31.3 79 -3.6 25.5
09:35 1027 30.33 857 25.31 -0.3 31.4 77 -3.8 25.2
09:40 1027 30.33 857 25.31 0.2 32.3 74 -3.9 25
09:45 1027 30.33 857 25.31 0.9 33.6 71 -3.7 25.3
09:50 1027 30.33 857 25.31 1 33.7 71 -3.8 25.1
09:55 1027 30.33 857 25.31 1 33.8 70 -3.8 25.2
10:00 1027 30.33 857 25.31 1 33.8 70 -3.8 25.1
10:05 1027 30.33 857 25.31 1.2 34.1 70 -3.7 25.3
10:10 1027 30.33 857 25.31 1.5 34.6 68 -3.8 25.2
10:15 1028 30.36 857 25.31 1.8 35.2 66 -3.8 25.1
10:20 1028 30.36 857 25.31 2.2 36 64 -3.8 25.1
10:25 1028 30.36 857 25.31 2.4 36.3 65 -3.6 25.5
10:30 1028 30.36 857 25.31 2.4 36.3 64 -3.7 25.4
10:35 1028 30.36 857 25.31 2.4 36.3 67 -3.1 26.5
10:40 1028 30.36 857 25.31 2.3 36.1 67 -3.3 26.1
10:45 1028 30.36 857 25.31 2.2 36 66 -3.5 25.6
10:50 1028 30.36 857 25.31 2.9 37.2 64 -3.2 26.3
10:55 1027 30.33 857 25.31 3.2 37.7 63 -3.2 26.3
11:00 1027 30.33 857 25.31 3.6 38.6 58 -3.9 25
11:05 1027 30.33 857 25.31 3.8 38.8 59 -3.4 25.8
11:10 1027 30.33 856 25.28 3.7 38.7 59 -3.6 25.6
11:15 1027 30.33 856 25.28 3.7 38.6 59 -3.6 25.5
11:20 1027 30.33 856 25.28 3.6 38.4 59 -3.7 25.4
11:25 1027 30.33 856 25.28 3.6 38.4 59 -3.8 25.2
11:30 1027 30.33 856 25.28 3.9 39 58 -3.7 25.3
11:35 1027 30.33 856 25.28 4.2 39.6 56 -3.8 25.2
11:40 1027 30.33 856 25.28 4.2 39.5 58 -3.5 25.8
11:45 1027 30.33 856 25.28 4.4 39.9 56 -3.8 25.2
11:50 1027 30.33 856 25.28 4.4 39.8 56 -3.8 25.2
11:55 1027 30.33 856 25.28 4.4 39.9 54 -4.1 24.6
12:00 1027 30.33 856 25.28 4.9 40.9 53 -3.8 25.2
12:05 1027 30.33 856 25.28 4.7 40.4 55 -3.6 25.6
12:10 1027 30.33 856 25.28 4.7 40.4 53 -4 24.7
12:15 1027 30.33 856 25.28 5.1 41.2 53 -3.7 25.4
12:20 1026 30.3 856 25.28 5.3 41.5 52 -3.8 25.2
12:25 1026 30.3 856 25.28 5.5 42 52 -3.6 25.4
12:30 1026 30.3 856 25.28 6 42.8 50 -3.5 25.7
12:35 1026 30.3 855 25.25 6.1 43 50 -3.6 25.5
12:40 1026 30.3 855 25.25 6.2 43.2 51 -3.2 26.2
12:45 1026 30.3 855 25.25 5.4 41.7 55 -2.9 26.8
12:50 1026 30.3 855 25.25 5.9 42.6 51 -3.5 25.7
12:55 1026 30.3 855 25.25 6.6 43.8 51 -2.8 27
13:00 1026 30.3 855 25.25 6 42.7 52 -3 26.5
13:05 1026 30.3 855 25.25 6.2 43.1 54 -2.5 27.4
13:10 1026 30.3 855 25.25 5.7 42.3 54 -2.9 26.7
13:15 1026 30.3 855 25.25 6 42.8 52 -3.2 26.3
13:20 1026 30.3 855 25.25 6.2 43.2 53 -2.5 27.5
13:25 1026 30.3 855 25.25 6.2 43.1 53 -2.7 27.2
13:30 1026 30.3 855 25.25 6.8 44.2 49 -3.2 26.2
13:35 1026 30.3 855 25.25 8 46.4 46 -3 26.5
13:40 1026 30.3 855 25.25 8.6 47.4 46 -2.5 27.5
13:45 1026 30.3 855 25.25 8.6 47.5 47 -2.1 28.3
13:50 1026 30.3 855 25.25 7.6 45.7 47 -2.8 26.9
13:55 1026 30.3 855 25.25 8.3 47 46 -2.4 27.6
14:00 1026 30.3 855 25.25 8.4 47.1 46 -2.5 27.5
14:05 1026 30.3 855 25.25 7.7 45.9 53 -1.3 29.6
14:10 1026 30.3 855 25.25 7.5 45.4 48 -2.8 26.9
14:15 1026 30.3 855 25.25 8.2 46.8 50 -1.6 29.1
14:20 1026 30.3 855 25.25 7.4 45.2 51 -2.2 28
14:25 1026 30.3 855 25.25 7.9 46.3 47 -2.7 27.1
14:30 1026 30.3 855 25.25 8.1 46.6 49 -2 28.5
14:35 1026 30.3 855 25.25 7.9 46.1 48 -2.5 27.4
14:40 1026 30.3 855 25.25 8.2 46.8 46 -2.6 27.4
14:45 1025 30.27 855 25.25 8.4 47.1 46 -2.5 27.5
14:50 1025 30.27 855 25.25 8.7 47.6 45 -2.5 27.4
14:55 1025 30.27 855 25.25 9.4 48.8 44 -2.3 27.8
15:00 1025 30.27 855 25.25 9.6 49.2 43 -2.3 27.9
15:05 1025 30.27 855 25.25 9.3 48.7 45 -2.1 28.2
15:10 1025 30.27 855 25.25 9.4 48.9 44 -2.4 27.7
15:15 1025 30.27 855 25.25 9.1 48.5 46 -2 28.4
15:20 1025 30.27 855 25.25 8.6 47.6 48 -1.7 29
15:25 1025 30.27 855 25.25 7.5 45.5 52 -1.7 28.9
15:30 1025 30.27 855 25.25 7.1 44.7 51 -2.3 27.9
15:35 1025 30.27 854 25.22 7.3 45.1 53 -1.8 28.8
15:40 1025 30.27 854 25.22 7.2 45 50 -2.5 27.5
15:45 1025 30.27 854 25.22 7.7 45.9 49 -2.2 28
15:50 1025 30.27 854 25.22 7.8 46 51 -1.6 29.2
15:55 1025 30.27 854 25.22 7.3 45.2 51 -2 28.4
16:00 1025 30.27 854 25.22 7.3 45.1 52 -2 28.3
16:05 1025 30.27 854 25.22 7.3 45.2 51 -2.2 28
16:10 1025 30.27 854 25.22 7.4 45.4 51 -2.1 28.2
16:15 1025 30.27 854 25.22 7.5 45.5 50 -2.1 28.2
16:20 1025 30.27 854 25.22 7.5 45.4 47 -3.2 26.2
16:25 1025 30.27 854 25.22 6.8 44.3 49 -3.2 26.3
16:30 1025 30.27 854 25.22 6.3 43.3 50 -3.3 26
16:35 1025 30.27 854 25.22 5.9 42.6 50 -3.7 25.4
16:40 1025 30.27 854 25.22 5.6 42 52 -3.5 25.8
16:45 1025 30.27 854 25.22 5.1 41.2 53 -3.7 25.3
16:50 1025 30.27 854 25.22 4.7 40.4 54 -3.8 25.2
16:55 1025 30.27 854 25.22 4.3 39.7 56 -3.8 25.2
17:00 1025 30.27 854 25.22 3.8 38.8 57 -3.9 25
17:05 1025 30.27 854 25.22 3.3 38 59 -4 24.8
17:10 1025 30.27 854 25.22 3.1 37.6 59 -4.1 24.6
17:15 1025 30.27 854 25.22 3 37.3 60 -4 24.7
17:20 1025 30.27 854 25.22 2.7 36.9 61 -4 24.7
17:25 1025 30.27 854 25.22 2.5 36.4 62 -4 24.7
17:30 1025 30.27 854 25.22 2.3 36.1 63 -4 24.8
17:35 1025 30.27 854 25.22 2 35.7 64 -4 24.8
17:40 1025 30.27 854 25.22 1.9 35.4 65 -4 24.8
17:45 1025 30.27 854 25.22 1.8 35.2 66 -4 24.8
17:50 1025 30.27 854 25.22 1.8 35.2 66 -3.9 24.9
17:55 1025 30.27 854 25.22 1.7 35.1 66 -3.9 25
18:00 1025 30.27 854 25.22 1.8 35.2 66 -3.9 25.1
18:05 1025 30.27 854 25.22 1.7 35 67 -3.7 25.3
18:10 1025 30.27 854 25.22 1.5 34.7 68 -3.8 25.1
18:15 1025 30.27 854 25.22 1.4 34.6 68 -3.8 25.1
18:20 1025 30.27 854 25.22 1.4 34.5 68 -3.9 25.1
18:25 1025 30.27 854 25.22 1.3 34.3 69 -3.8 25.1
18:30 1025 30.27 854 25.22 1.3 34.3 69 -3.8 25.2
18:35 1025 30.27 854 25.22 1.2 34.2 69 -3.8 25.1
18:40 1025 30.27 854 25.22 1.2 34.2 69 -3.9 24.9
18:45 1025 30.27 854 25.22 1.2 34.1 69 -3.9 25
18:50 1025 30.27 854 25.22 1.1 34 69 -3.9 24.9
18:55 1025 30.27 854 25.22 1 33.8 70 -3.9 25
19:00 1025 30.27 854 25.22 1 33.8 70 -3.9 25
19:05 1024 30.24 854 25.22 1 33.8 70 -3.9 25
19:10 1025 30.27 854 25.22 0.9 33.6 70 -3.9 25
19:15 1024 30.24 854 25.22 0.8 33.5 71 -3.9 25
19:20 1024 30.24 854 25.22 0.8 33.4 71 -3.9 24.9
19:25 1025 30.27 854 25.22 0.7 33.3 71 -4 24.9
19:30 1025 30.27 854 25.22 0.7 33.2 71 -4 24.9
19:35 1024 30.24 854 25.22 0.6 33.2 71 -4 24.8
19:40 1024 30.24 854 25.22 0.7 33.2 71 -4.1 24.7
19:45 1024 30.24 854 25.22 0.7 33.3 70 -4.1 24.7
19:50 1024 30.24 854 25.22 0.7 33.2 71 -4 24.7
19:55 1024 30.24 854 25.22 0.7 33.2 70 -4.1 24.6
20:00 1024 30.24 854 25.22 0.6 33.2 71 -4.1 24.6
20:05 1024 30.24 854 25.22 0.6 33.1 71 -4 24.7
20:10 1024 30.24 854 25.22 0.6 33 71 -4 24.7
20:15 1025 30.27 854 25.22 0.4 32.8 72 -4 24.8
20:20 1025 30.27 854 25.22 0.4 32.6 72 -4.1 24.7
20:25 1024 30.24 854 25.22 0.3 32.5 72 -4.1 24.6
20:30 1024 30.24 854 25.22 0.4 32.6 72 -4.1 24.6
20:35 1025 30.27 854 25.22 0.3 32.5 72 -4.1 24.6
20:40 1025 30.27 854 25.22 0.2 32.4 73 -4.1 24.6
20:45 1025 30.27 854 25.22 0.1 32.3 73 -4.1 24.6
20:50 1025 30.27 854 25.22 0.1 32.2 73 -4.2 24.5
20:55 1025 30.27 854 25.22 0.2 32.3 73 -4.2 24.5
21:00 1025 30.27 854 25.22 0.1 32.2 73 -4.1 24.5
21:05 1025 30.27 854 25.22 0.1 32.2 72 -4.3 24.3
21:10 1025 30.27 854 25.22 0.4 32.6 72 -4.2 24.5
21:15 1025 30.27 854 25.22 0.3 32.5 73 -3.9 24.9
21:20 1025 30.27 854 25.22 -0.1 31.9 75 -4.1 24.7
21:25 1025 30.27 854 25.22 -0.1 31.8 75 -4.1 24.7
21:30 1025 30.27 854 25.22 -0.2 31.6 75 -4.2 24.5
21:35 1025 30.27 854 25.22 -0.3 31.5 75 -4.1 24.6
21:40 1025 30.27 854 25.22 -0.4 31.3 76 -4.1 24.5
21:45 1025 30.27 854 25.22 -0.5 31.1 76 -4.2 24.4
21:50 1024 30.24 854 25.22 -0.4 31.4 76 -4.2 24.5
21:55 1024 30.24 854 25.22 -0.4 31.2 76 -4.2 24.5
22:00 1024 30.24 854 25.22 -0.4 31.2 76 -4.1 24.5
22:05 1024 30.24 854 25.22 -0.5 31 76 -4.2 24.5
22:10 1024 30.24 854 25.22 -0.6 31 76 -4.2 24.4
22:15 1024 30.24 854 25.22 -0.6 30.9 77 -4.2 24.4
22:20 1024 30.24 854 25.22 -0.6 30.9 76 -4.3 24.3
22:25 1024 30.24 854 25.22 -0.5 31.1 76 -4.2 24.4
22:30 1024 30.24 854 25.22 -0.5 31.1 76 -4.1 24.5
22:35 1024 30.24 854 25.22 -0.4 31.2 76 -4.1 24.6
22:40 1024 30.24 854 25.22 -0.4 31.2 76 -4.2 24.5
22:45 1024 30.24 854 25.22 -0.4 31.3 76 -4.1 24.5
22:50 1024 30.24 854 25.22 -0.4 31.3 76 -4.2 24.5
22:55 1024 30.24 854 25.22 -0.3 31.4 76 -4.1 24.6
23:00 1024 30.24 854 25.22 -0.3 31.5 76 -4.1 24.7
23:05 1024 30.24 854 25.22 -0.3 31.4 76 -4 24.7
23:10 1024 30.24 854 25.22 -0.5 31.1 77 -4.1 24.7
23:15 1024 30.24 853 25.19 -0.5 31.2 77 -4.1 24.6
23:20 1024 30.24 853 25.19 -0.5 31.1 77 -4.1 24.6
23:25 1024 30.24 853 25.19 -0.6 30.8 77 -4.1 24.6
23:30 1024 30.24 853 25.19 -0.7 30.7 77 -4.2 24.5
23:35 1024 30.24 853 25.19 -0.6 30.9 77 -4.2 24.5
23:40 1024 30.24 853 25.19 -0.4 31.2 76 -4.2 24.5
23:45 1024 30.24 853 25.19 -0.4 31.3 76 -4.1 24.5
23:50 1024 30.24 853 25.19 -0.4 31.2 76 -4.1 24.6
23:55 1024 30.24 853 25.19 -0.5 31 77 -4.1 24.5
24:00 1024 30.24 853 25.19 -0.5 31.1 76 -4.2 24.5